Time;durP1;ratioP1;P1;durP2;ratioP2;P2;SDS_P1;SDS_P2;PMS_P1;PMS_P2;Temp;Humidity;BMP_temperature;BMP_pressure;BME280_temperature;BME280_humidity;BME280_pressure;Samples;Min_cycle;Max_cycle;Signal;HPM_P1;HPM_P2
2022/03/01 00:01:20;;;;;;;84.20;58.60;;;;;;;-1.55;60.26;102598.16;108478;1273;24900;-76
2022/03/01 00:03:52;;;;;;;85.50;60.20;;;;;;;-1.57;60.31;102599.92;108449;1272;21984;-75
2022/03/01 00:06:21;;;;;;;89.00;59.20;;;;;;;-1.60;60.37;102599.30;108484;1272;23751;-77
2022/03/01 00:08:53;;;;;;;98.50;59.50;;;;;;;-1.62;60.48;102594.52;108559;1274;23609;-77
2022/03/01 00:11:31;;;;;;;111.70;64.30;;;;;;;-1.64;60.39;102594.55;108432;1273;22232;-76
2022/03/01 00:14:03;;;;;;;100.60;61.50;;;;;;;-1.70;60.45;102596.05;108508;1273;24303;-76
2022/03/01 00:16:36;;;;;;;93.80;56.00;;;;;;;-1.74;60.62;102594.09;108355;1276;21984;-76
2022/03/01 00:19:10;;;;;;;119.00;63.80;;;;;;;-1.76;60.73;102593.77;108162;1279;21987;-78
2022/03/01 00:21:43;;;;;;;239.10;107.60;;;;;;;-1.76;60.86;102596.19;108353;1279;22020;-76
2022/03/01 00:24:17;;;;;;;346.10;168.30;;;;;;;-1.75;60.92;102598.25;108276;1279;21985;-77
2022/03/01 00:26:56;;;;;;;359.10;176.40;;;;;;;-1.73;60.94;102597.16;108273;1279;22918;-76
2022/03/01 00:29:25;;;;;;;188.20;93.00;;;;;;;-1.72;60.89;102598.70;108359;1276;22921;-76
2022/03/01 00:31:55;;;;;;;493.60;311.30;;;;;;;-1.70;60.98;102598.50;108303;1276;23815;-77
2022/03/01 00:34:28;;;;;;;375.90;248.10;;;;;;;-1.69;61.04;102597.25;107847;1281;23704;-76
2022/03/01 00:36:58;;;;;;;142.00;85.80;;;;;;;-1.70;61.02;102593.64;108050;1279;22073;-77
2022/03/01 00:39:33;;;;;;;81.30;53.10;;;;;;;-1.74;61.06;102591.49;108165;1278;22935;-77
2022/03/01 00:42:06;;;;;;;76.90;47.60;;;;;;;-1.80;61.10;102591.79;107734;1283;22006;-77
2022/03/01 00:44:36;;;;;;;82.20;48.70;;;;;;;-1.85;61.15;102590.86;108095;1280;23119;-77
2022/03/01 00:47:05;;;;;;;72.10;44.20;;;;;;;-1.87;61.31;102589.89;107950;1280;21998;-77
2022/03/01 00:49:34;;;;;;;71.20;44.40;;;;;;;-1.89;61.35;102587.85;107979;1279;22028;-77
2022/03/01 00:52:07;;;;;;;77.40;46.10;;;;;;;-1.89;61.45;102589.06;108033;1276;23166;-77
2022/03/01 00:54:39;;;;;;;76.30;43.40;;;;;;;-1.90;61.43;102588.55;108461;1275;22007;-77
2022/03/01 00:57:10;;;;;;;76.70;45.20;;;;;;;-1.90;61.38;102592.54;108208;1276;23641;-76
2022/03/01 00:59:46;;;;;;;66.50;42.20;;;;;;;-1.89;61.49;102594.06;108246;1272;21988;-76
2022/03/01 01:02:15;;;;;;;70.60;42.80;;;;;;;-1.87;61.58;102595.25;108384;1276;23776;-77
2022/03/01 01:04:50;;;;;;;69.40;44.10;;;;;;;-1.85;61.64;102595.18;108372;1276;22769;-77
2022/03/01 01:07:20;;;;;;;76.50;46.30;;;;;;;-1.83;61.57;102594.45;108367;1277;22962;-76
2022/03/01 01:09:49;;;;;;;72.10;44.60;;;;;;;-1.83;61.60;102590.31;108332;1276;21990;-76
2022/03/01 01:12:19;;;;;;;71.40;43.90;;;;;;;-1.84;61.60;102586.55;108382;1276;23073;-75
2022/03/01 01:14:51;;;;;;;;;;;;;;;-1.87;61.69;102584.88;108330;1276;22013;-76
2022/03/01 01:17:25;;;;;;;76.20;44.20;;;;;;;-1.94;61.84;102583.13;108314;1277;23111;-77
2022/03/01 01:20:08;;;;;;;74.10;46.40;;;;;;;-1.98;61.92;102582.33;108193;1272;23063;-76
2022/03/01 01:22:44;;;;;;;84.60;50.40;;;;;;;-2.00;61.93;102584.11;108462;1273;21990;-76
2022/03/01 01:25:24;;;;;;;82.80;49.00;;;;;;;-2.04;61.93;102584.02;108386;1276;21991;-76
2022/03/01 01:27:58;;;;;;;84.40;51.00;;;;;;;-2.06;61.93;102581.98;108032;1281;23666;-76
2022/03/01 01:30:30;;;;;;;;;;;;;;;-2.07;61.95;102585.98;108040;1281;23181;-76
2022/03/01 01:33:04;;;;;;;71.60;42.80;;;;;;;-2.13;62.07;102586.80;108052;1281;22019;-77
2022/03/01 01:35:38;;;;;;;76.50;46.80;;;;;;;-2.16;62.07;102578.56;107895;1281;22003;-78
2022/03/01 01:38:08;;;;;;;78.90;47.80;;;;;;;-2.14;62.12;102576.64;107957;1281;23107;-76
2022/03/01 01:40:50;;;;;;;84.30;50.50;;;;;;;-2.12;62.18;102579.02;108055;1281;22075;-76
2022/03/01 01:43:20;;;;;;;79.50;48.20;;;;;;;-2.10;62.21;102581.55;108143;1278;23042;-76
2022/03/01 01:45:52;;;;;;;78.60;47.40;;;;;;;-2.07;62.36;102583.56;108276;1272;21985;-76
2022/03/01 01:48:25;;;;;;;76.60;47.70;;;;;;;-2.04;62.36;102586.62;108568;1272;21988;-77
2022/03/01 01:50:54;;;;;;;73.80;49.90;;;;;;;-1.99;62.38;102587.73;108523;1274;22879;-77
2022/03/01 01:53:24;;;;;;;78.70;50.60;;;;;;;-1.99;62.30;102579.94;108468;1273;23612;-76
2022/03/01 01:55:54;;;;;;;114.70;60.50;;;;;;;-2.00;62.24;102578.59;108460;1272;23065;-76
2022/03/01 01:58:23;;;;;;;85.00;55.00;;;;;;;-2.02;62.18;102584.16;108476;1273;21989;-77
2022/03/01 02:00:58;;;;;;;92.80;56.50;;;;;;;-2.04;62.23;102589.02;108582;1272;23925;-77
2022/03/01 02:03:30;;;;;;;105.80;60.90;;;;;;;-2.09;62.23;102584.65;108541;1272;21999;-77
2022/03/01 02:05:59;;;;;;;105.30;61.90;;;;;;;-2.14;62.20;102582.34;108519;1273;22015;-77
2022/03/01 02:08:33;;;;;;;97.10;58.90;;;;;;;-2.20;62.18;102578.83;108469;1274;21982;-77
2022/03/01 02:11:02;;;;;;;108.90;62.80;;;;;;;-2.25;62.26;102574.09;108500;1272;23778;-77
2022/03/01 02:13:31;;;;;;;81.60;50.30;;;;;;;-2.27;62.39;102573.95;108502;1273;21997;-76
2022/03/01 02:16:01;;;;;;;94.00;56.20;;;;;;;-2.28;62.57;102572.27;108670;1272;22445;-77
2022/03/01 02:18:31;;;;;;;84.70;52.80;;;;;;;-2.27;62.75;102570.17;108460;1273;23748;-76
2022/03/01 02:21:05;;;;;;;80.80;50.50;;;;;;;-2.24;62.83;102572.86;108448;1273;21988;-76
2022/03/01 02:23:39;;;;;;;82.20;52.90;;;;;;;-2.22;62.92;102575.92;108313;1278;22664;-76
2022/03/01 02:26:08;;;;;;;79.50;49.30;;;;;;;-2.19;62.99;102576.56;108381;1278;22062;-76
2022/03/01 02:28:37;;;;;;;81.40;50.80;;;;;;;-2.18;62.95;102577.73;108064;1281;22074;-76
2022/03/01 02:31:09;;;;;;;77.20;50.10;;;;;;;-2.19;62.88;102575.88;107969;1281;22118;-77
2022/03/01 02:33:38;;;;;;;77.90;50.40;;;;;;;-2.23;62.82;102573.88;108040;1281;22019;-77
2022/03/01 02:36:07;;;;;;;79.80;49.30;;;;;;;-2.28;62.76;102573.84;107980;1281;22102;-76
2022/03/01 02:38:37;;;;;;;80.00;50.00;;;;;;;-2.35;62.75;102570.86;107452;1287;23612;-77
2022/03/01 02:41:06;;;;;;;78.00;51.20;;;;;;;-2.42;62.88;102568.39;107566;1286;22103;-77
2022/03/01 02:43:44;;;;;;;85.20;53.60;;;;;;;-2.48;62.95;102569.73;107666;1281;23135;-77
2022/03/01 02:46:20;;;;;;;81.30;53.80;;;;;;;-2.55;63.03;102574.33;107953;1278;22012;-77
2022/03/01 02:48:50;;;;;;;83.50;56.00;;;;;;;-2.58;63.19;102576.65;108174;1278;22127;-77
2022/03/01 02:51:29;;;;;;;97.60;60.90;;;;;;;-2.61;63.23;102577.90;108079;1278;23091;-77
2022/03/01 02:53:58;;;;;;;85.30;54.60;;;;;;;-2.62;63.34;102572.23;108234;1279;22766;-77
2022/03/01 02:56:28;;;;;;;85.20;58.00;;;;;;;-2.61;63.53;102570.67;108326;1272;22092;-77
2022/03/01 02:58:59;;;;;;;82.30;56.90;;;;;;;-2.60;63.65;102572.19;108509;1273;22034;-77
2022/03/01 03:01:32;;;;;;;93.80;58.00;;;;;;;-2.57;63.76;102573.36;108546;1273;21985;-77
2022/03/01 03:04:02;;;;;;;101.90;63.40;;;;;;;-2.57;63.87;102569.73;108500;1272;21994;-77
2022/03/01 03:06:32;;;;;;;91.20;59.90;;;;;;;-2.56;63.93;102566.44;108685;1272;21981;-77
2022/03/01 03:09:01;;;;;;;89.20;58.00;;;;;;;-2.55;64.04;102561.21;108523;1273;22057;-77
2022/03/01 03:11:32;;;;;;;88.50;58.60;;;;;;;-2.52;64.28;102559.44;108526;1272;22032;-77
2022/03/01 03:14:03;;;;;;;88.00;57.80;;;;;;;-2.50;64.36;102559.07;108482;1272;22006;-77
2022/03/01 03:16:32;;;;;;;84.50;58.60;;;;;;;-2.49;64.46;102555.94;108443;1273;22031;-77
2022/03/01 03:19:02;;;;;;;91.90;59.30;;;;;;;-2.48;64.47;102550.05;108497;1273;22400;-77
2022/03/01 03:21:46;;;;;;;89.20;60.80;;;;;;;-2.50;64.34;102546.65;108475;1272;22036;-77
2022/03/01 03:24:17;;;;;;;87.10;59.50;;;;;;;-2.54;64.48;102544.64;108564;1273;23075;-77
2022/03/01 03:26:50;;;;;;;86.30;61.10;;;;;;;-2.56;64.50;102546.77;108436;1273;22782;-77
2022/03/01 03:29:19;;;;;;;85.80;62.40;;;;;;;-2.59;64.59;102542.32;108492;1272;21985;-77
2022/03/01 03:31:56;;;;;;;;;;;;;;;-2.62;64.59;102540.64;108419;1272;22065;-76
2022/03/01 03:34:26;;;;;;;93.80;61.30;;;;;;;-2.69;64.69;102539.58;108509;1272;21982;-77
2022/03/01 03:36:58;;;;;;;93.60;64.00;;;;;;;-2.70;64.76;102546.34;108295;1278;22510;-77
2022/03/01 03:39:28;;;;;;;93.10;66.40;;;;;;;-2.68;64.89;102550.77;108188;1278;23671;-77
2022/03/01 03:41:58;;;;;;;93.80;65.60;;;;;;;-2.65;64.96;102547.96;107952;1281;22073;-76
2022/03/01 03:44:28;;;;;;;90.00;63.40;;;;;;;-2.61;64.95;102548.06;108032;1281;22004;-76
2022/03/01 03:46:57;;;;;;;92.50;61.60;;;;;;;-2.60;64.97;102546.14;107998;1281;23810;-77
2022/03/01 03:49:29;;;;;;;94.90;64.30;;;;;;;-2.58;64.97;102544.89;107964;1281;22006;-77
2022/03/01 03:51:59;;;;;;;101.10;68.20;;;;;;;-2.57;64.87;102540.75;107884;1281;22057;-77
2022/03/01 03:54:33;;;;;;;112.10;72.50;;;;;;;-2.58;64.91;102537.46;107911;1278;22344;-77
2022/03/01 03:57:08;;;;;;;108.10;72.70;;;;;;;-2.59;64.85;102540.43;108328;1276;21988;-77
2022/03/01 03:59:39;;;;;;;113.80;77.40;;;;;;;-2.62;64.75;102537.73;108372;1278;23031;-76
2022/03/01 04:02:09;;;;;;;116.50;79.10;;;;;;;-2.68;64.78;102532.84;108205;1277;22074;-76
2022/03/01 04:04:38;;;;;;;112.80;80.50;;;;;;;-2.75;64.72;102530.39;108432;1277;23855;-78
2022/03/01 04:07:12;;;;;;;114.80;80.90;;;;;;;-2.81;64.76;102531.89;108364;1272;22006;-79
2022/03/01 04:09:47;;;;;;;127.00;89.10;;;;;;;-2.88;64.90;102535.11;108532;1272;23074;-76
2022/03/01 04:12:18;;;;;;;119.40;82.80;;;;;;;-2.92;65.10;102532.42;108459;1273;22111;-76
2022/03/01 04:14:52;;;;;;;125.40;85.20;;;;;;;-2.96;65.19;102528.19;108527;1273;22059;-76
2022/03/01 04:17:27;;;;;;;118.40;84.30;;;;;;;-2.97;65.39;102525.96;108440;1275;22087;-76
2022/03/01 04:20:04;;;;;;;127.10;85.60;;;;;;;-2.96;65.50;102528.35;108414;1275;22785;-77
2022/03/01 04:22:40;;;;;;;137.40;98.40;;;;;;;-2.96;65.47;102526.45;108302;1276;23753;-76
2022/03/01 04:25:10;;;;;;;164.60;112.00;;;;;;;-2.95;65.54;102524.20;107918;1281;22038;-77
2022/03/01 04:27:43;;;;;;;165.50;104.70;;;;;;;-2.94;65.71;102516.60;107616;1284;22801;-76
2022/03/01 04:30:13;;;;;;;108.10;72.60;;;;;;;-2.93;65.80;102516.74;107372;1284;22866;-76
2022/03/01 04:32:45;;;;;;;126.40;87.90;;;;;;;-2.90;65.98;102515.33;107876;1285;22009;-76
2022/03/01 04:35:21;;;;;;;122.20;81.90;;;;;;;-2.89;65.96;102507.70;107258;1286;22108;-77
2022/03/01 04:37:52;;;;;;;109.60;74.10;;;;;;;-2.89;65.95;102503.05;107481;1287;22039;-77
2022/03/01 04:40:23;;;;;;;120.50;80.60;;;;;;;-2.89;65.98;102504.09;107395;1287;23735;-76
2022/03/01 04:43:02;;;;;;;118.10;78.50;;;;;;;-2.90;66.04;102500.81;107535;1281;22001;-76
2022/03/01 04:45:39;;;;;;;126.10;82.40;;;;;;;-2.92;66.14;102501.89;107729;1281;22010;-76
2022/03/01 04:48:08;;;;;;;349.60;232.80;;;;;;;-2.94;66.17;102497.97;107965;1281;23025;-77
2022/03/01 04:50:38;;;;;;;1146.30;745.20;;;;;;;-2.98;66.22;102496.84;108037;1281;22007;-75
2022/03/01 04:53:07;;;;;;;608.30;433.30;;;;;;;-3.02;66.29;102494.17;108037;1277;22000;-76
2022/03/01 04:55:39;;;;;;;;;;;;;;;-3.06;66.34;102490.27;108493;1273;23026;-76
2022/03/01 04:58:19;;;;;;;282.80;176.10;;;;;;;-3.15;66.42;102487.16;108518;1273;23850;-76
2022/03/01 05:00:54;;;;;;;132.20;88.30;;;;;;;-3.20;66.44;102487.42;108645;1273;21999;-76
2022/03/01 05:03:30;;;;;;;120.60;77.60;;;;;;;-3.23;66.37;102487.98;108685;1272;23103;-76
2022/03/01 05:06:01;;;;;;;121.00;77.20;;;;;;;-3.26;66.29;102481.83;108518;1273;22075;-76
2022/03/01 05:08:40;;;;;;;107.00;72.30;;;;;;;-3.27;66.28;102475.15;108361;1276;21994;-76
2022/03/01 05:11:13;;;;;;;128.60;77.40;;;;;;;-3.28;66.48;102476.19;108012;1279;24311;-77
2022/03/01 05:13:44;;;;;;;113.20;70.00;;;;;;;-3.29;66.60;102482.92;108022;1280;22130;-76
2022/03/01 05:16:14;;;;;;;106.20;68.00;;;;;;;-3.30;66.57;102476.55;108072;1280;23826;-76
2022/03/01 05:18:52;;;;;;;97.30;65.80;;;;;;;-3.34;66.51;102474.39;107981;1285;22121;-76
2022/03/01 05:21:21;;;;;;;118.50;72.60;;;;;;;-3.36;66.62;102473.56;107264;1290;22899;-76
2022/03/01 05:23:55;;;;;;;95.90;63.90;;;;;;;-3.40;66.77;102470.00;107538;1289;22009;-76
2022/03/01 05:26:24;;;;;;;102.90;70.40;;;;;;;-3.44;67.03;102471.45;107570;1284;22629;-76
2022/03/01 05:28:54;;;;;;;106.30;71.40;;;;;;;-3.45;67.32;102470.10;107726;1278;21994;-76
2022/03/01 05:31:30;;;;;;;157.80;102.90;;;;;;;-3.47;67.21;102466.86;108150;1278;21998;-76
2022/03/01 05:34:01;;;;;;;143.10;87.40;;;;;;;-3.50;67.29;102463.98;108047;1282;21996;-75
2022/03/01 05:36:34;;;;;;;126.90;81.00;;;;;;;-3.49;67.54;102461.90;108152;1278;22896;-77
2022/03/01 05:39:05;;;;;;;103.40;69.50;;;;;;;-3.45;67.66;102462.70;108449;1273;22633;-76
2022/03/01 05:41:38;;;;;;;98.70;67.20;;;;;;;-3.45;67.62;102462.01;108667;1273;23855;-77
2022/03/01 05:44:08;;;;;;;221.50;115.10;;;;;;;-3.45;67.53;102464.23;108400;1276;24364;-76
2022/03/01 05:46:38;;;;;;;259.10;133.90;;;;;;;-3.44;67.70;102462.33;108473;1276;23201;-77
2022/03/01 05:49:08;;;;;;;163.80;91.60;;;;;;;-3.41;67.82;102461.77;108433;1273;24428;-77
2022/03/01 05:51:43;;;;;;;139.10;82.40;;;;;;;-3.38;67.91;102464.13;108252;1274;22003;-77
2022/03/01 05:54:17;;;;;;;147.00;86.40;;;;;;;-3.35;68.05;102466.13;108033;1280;22125;-77
2022/03/01 05:56:47;;;;;;;153.20;91.00;;;;;;;-3.33;68.16;102464.73;108125;1279;21992;-77
2022/03/01 05:59:16;;;;;;;170.60;97.90;;;;;;;-3.28;68.20;102468.09;108245;1276;23710;-77
2022/03/01 06:01:47;;;;;;;162.60;99.30;;;;;;;-3.27;68.14;102470.65;108379;1276;22450;-77
2022/03/01 06:04:16;;;;;;;206.30;112.50;;;;;;;-3.26;68.15;102470.83;108397;1276;22086;-76
2022/03/01 06:06:46;;;;;;;259.70;136.30;;;;;;;-3.26;68.23;102468.39;108396;1276;23713;-76
2022/03/01 06:09:15;;;;;;;201.00;114.40;;;;;;;-3.25;68.40;102468.38;108392;1276;22013;-77
2022/03/01 06:11:44;;;;;;;185.70;114.00;;;;;;;-3.25;68.46;102465.98;108445;1272;21992;-76
2022/03/01 06:14:14;;;;;;;211.70;123.30;;;;;;;-3.25;68.59;102464.94;108727;1272;21997;-77
2022/03/01 06:16:44;;;;;;;194.00;114.00;;;;;;;-3.24;68.65;102471.46;108693;1272;21989;-77
2022/03/01 06:19:15;;;;;;;213.10;118.40;;;;;;;-3.20;68.66;102472.26;108415;1276;21978;-77
2022/03/01 06:21:49;;;;;;;205.30;119.40;;;;;;;-3.18;68.78;102473.75;108305;1279;23090;-77
2022/03/01 06:24:19;;;;;;;;;;;;;;;-3.14;68.84;102477.65;108329;1279;22000;-76
2022/03/01 06:26:49;;;;;;;250.20;129.50;;;;;;;-3.13;69.06;102481.27;107965;1284;22005;-77
2022/03/01 06:29:19;;;;;;;265.20;138.90;;;;;;;-3.07;69.24;102482.54;107860;1284;22001;-77
2022/03/01 06:31:48;;;;;;;242.30;135.00;;;;;;;-2.97;69.35;102486.33;107936;1284;21996;-79
2022/03/01 06:34:20;;;;;;;237.10;134.60;;;;;;;-2.89;69.47;102491.84;107892;1284;22011;-77
2022/03/01 06:36:50;;;;;;;257.40;150.70;;;;;;;-2.81;69.40;102490.48;107959;1284;21999;-78
2022/03/01 06:39:21;;;;;;;299.20;172.20;;;;;;;-2.71;69.38;102492.19;107712;1278;21995;-81
2022/03/01 06:41:52;;;;;;;480.60;278.20;;;;;;;-2.68;69.35;102492.63;108139;1278;23186;-78
2022/03/01 06:44:21;;;;;;;388.10;221.90;;;;;;;-2.67;69.10;102493.31;107928;1281;21992;-78
2022/03/01 06:46:50;;;;;;;993.10;505.40;;;;;;;-2.67;69.10;102494.36;108137;1279;22033;-78
2022/03/01 06:49:20;;;;;;;432.00;249.40;;;;;;;-2.67;69.23;102493.84;108146;1281;22428;-79
2022/03/01 06:51:51;;;;;;;325.50;188.40;;;;;;;-2.66;69.38;102496.58;108371;1280;22954;-78
2022/03/01 06:54:20;;;;;;;270.00;162.50;;;;;;;-2.64;69.66;102496.88;108058;1281;22025;-79
2022/03/01 06:56:49;;;;;;;234.10;146.70;;;;;;;-2.61;69.78;102498.53;107999;1280;22002;-78
2022/03/01 06:59:24;;;;;;;227.80;148.60;;;;;;;-2.58;69.83;102497.80;108207;1279;22053;-78
2022/03/01 07:01:54;;;;;;;222.00;140.60;;;;;;;-2.54;69.92;102496.50;108165;1276;21997;-78
2022/03/01 07:04:28;;;;;;;210.80;139.30;;;;;;;-2.46;69.93;102497.38;108422;1276;22004;-78
2022/03/01 07:06:57;;;;;;;256.50;159.90;;;;;;;-2.37;69.90;102500.83;108377;1279;21981;-78
2022/03/01 07:09:27;;;;;;;224.60;148.50;;;;;;;-2.29;69.93;102500.84;108222;1279;22003;-78
2022/03/01 07:11:59;;;;;;;216.00;141.00;;;;;;;-2.20;70.01;102500.80;108168;1277;289183;-78
2022/03/01 07:14:28;;;;;;;218.30;142.40;;;;;;;-2.07;70.07;102502.23;108353;1273;23168;-78
2022/03/01 07:16:58;;;;;;;215.30;140.50;;;;;;;-1.95;69.91;102501.81;108470;1273;22450;-79
2022/03/01 07:19:32;;;;;;;202.40;132.50;;;;;;;-1.84;69.86;102502.59;108467;1273;21987;-80
2022/03/01 07:22:02;;;;;;;189.70;121.10;;;;;;;-1.70;69.95;102502.25;108445;1276;21984;-79
2022/03/01 07:24:38;;;;;;;180.70;123.00;;;;;;;-1.55;69.81;102500.70;108462;1272;22006;-78
2022/03/01 07:27:08;;;;;;;163.70;107.70;;;;;;;-1.38;69.83;102501.49;108750;1272;23641;-77
2022/03/01 07:29:59;;;;;;;149.10;102.10;;;;;;;-1.16;70.10;102497.48;108725;1272;22104;-79
2022/03/01 07:32:41;;;;;;;147.80;103.00;;;;;;;-0.92;70.01;102497.52;108758;1272;21953;-79
2022/03/01 07:35:22;;;;;;;154.20;100.00;;;;;;;-0.65;69.75;102501.64;108523;1272;23194;-77
2022/03/01 07:37:52;;;;;;;129.20;91.20;;;;;;;-0.42;69.44;102503.05;108684;1273;23454;-78
2022/03/01 07:40:31;;;;;;;119.20;85.80;;;;;;;-0.10;69.38;102495.35;108558;1272;21988;-76
2022/03/01 07:43:07;;;;;;;114.90;78.80;;;;;;;0.30;69.60;102494.98;108621;1273;22000;-78
2022/03/01 07:45:47;;;;;;;102.00;71.60;;;;;;;0.81;69.77;102497.27;108455;1276;22785;-77
2022/03/01 07:48:21;;;;;;;91.70;65.20;;;;;;;1.34;69.19;102493.52;108442;1276;21995;-78
2022/03/01 07:51:01;;;;;;;83.10;59.10;;;;;;;1.77;67.93;102487.21;108261;1276;22011;-78
2022/03/01 07:54:14;;;;;;;70.40;51.90;;;;;;;2.33;66.75;102484.66;108402;1276;22106;-78
2022/03/01 07:56:49;;;;;;;74.50;52.30;;;;;;;2.66;65.43;102484.19;108043;1281;23103;-80
2022/03/01 07:59:42;;;;;;;78.10;54.30;;;;;;;3.06;63.71;102482.80;107830;1280;23669;-80
2022/03/01 08:02:21;;;;;;;72.40;53.10;;;;;;;3.34;62.76;102482.80;107819;1284;22011;-77
2022/03/01 08:04:50;;;;;;;63.40;48.60;;;;;;;3.71;62.09;102485.64;107979;1281;23725;-78
2022/03/01 08:07:41;;;;;;;77.20;54.60;;;;;;;4.00;60.17;102488.64;107795;1283;21995;-77
2022/03/01 08:10:19;;;;;;;78.00;58.70;;;;;;;4.29;59.81;102491.42;107798;1284;21997;-77
2022/03/01 08:12:55;;;;;;;80.80;58.40;;;;;;;4.66;58.95;102487.84;107841;1283;22009;-77
2022/03/01 08:15:26;;;;;;;109.80;85.10;;;;;;;4.95;57.71;102489.36;107954;1280;22323;-77
2022/03/01 08:18:04;;;;;;;89.20;66.50;;;;;;;5.26;57.12;102483.55;108399;1278;22009;-77
2022/03/01 08:20:42;;;;;;;76.50;60.40;;;;;;;5.48;55.76;102481.31;108228;1273;22012;-78
2022/03/01 08:23:18;;;;;;;85.10;65.70;;;;;;;5.83;55.89;102479.43;108549;1273;24310;-79
2022/03/01 08:25:51;;;;;;;86.60;69.10;;;;;;;6.26;55.70;102479.63;108672;1274;23084;-79
2022/03/01 08:28:29;;;;;;;233.40;145.00;;;;;;;6.56;53.74;102481.77;108471;1272;23124;-78
2022/03/01 08:31:01;;;;;;;165.40;106.80;;;;;;;6.84;53.23;102483.59;108693;1270;21998;-78
2022/03/01 08:33:36;;;;;;;113.10;83.00;;;;;;;7.31;53.61;102484.78;108754;1273;21994;-78
2022/03/01 08:36:21;;;;;;;118.40;70.40;;;;;;;7.74;52.08;102489.79;108740;1270;22006;-77
2022/03/01 08:38:50;;;;;;;99.10;68.80;;;;;;;7.88;50.03;102489.63;108777;1271;23698;-77
2022/03/01 08:41:20;;;;;;;78.10;59.10;;;;;;;8.19;50.83;102492.59;108732;1272;22084;-77
2022/03/01 08:43:52;;;;;;;53.70;42.30;;;;;;;8.56;50.31;102490.47;108746;1270;21985;-77
2022/03/01 08:46:23;;;;;;;44.00;34.30;;;;;;;8.98;49.61;102488.73;108744;1273;21981;-77
2022/03/01 08:48:58;;;;;;;40.10;30.40;;;;;;;9.26;47.82;102490.85;108740;1270;22173;-77
2022/03/01 08:51:31;;;;;;;34.50;26.20;;;;;;;9.29;45.71;102488.00;108656;1273;21998;-76
2022/03/01 08:54:03;;;;;;;38.90;26.50;;;;;;;9.35;45.78;102480.84;108747;1270;22007;-77
2022/03/01 08:56:43;;;;;;;35.80;24.90;;;;;;;9.48;45.06;102477.85;108417;1276;22785;-77
2022/03/01 08:59:15;;;;;;;35.60;25.30;;;;;;;9.53;44.23;102474.48;108312;1279;22005;-77
2022/03/01 09:01:48;;;;;;;41.00;31.30;;;;;;;9.44;42.56;102467.71;108032;1279;21977;-78
2022/03/01 09:04:20;;;;;;;36.20;28.10;;;;;;;9.18;42.26;102461.66;108074;1278;22115;-77
2022/03/01 09:06:55;;;;;;;46.20;31.80;;;;;;;9.21;43.54;102455.83;108008;1279;23000;-77
2022/03/01 09:09:27;;;;;;;53.10;38.50;;;;;;;9.57;44.35;102454.86;108101;1279;22017;-78
2022/03/01 09:12:07;;;;;;;57.80;39.10;;;;;;;9.89;43.55;102451.19;108011;1280;23796;-77
2022/03/01 09:14:39;;;;;;;34.20;25.80;;;;;;;10.06;42.26;102448.83;108361;1276;21997;-77
2022/03/01 09:17:09;;;;;;;40.80;31.60;;;;;;;10.01;41.49;102445.70;108443;1272;21999;-77
2022/03/01 09:19:38;;;;;;;39.40;31.90;;;;;;;10.10;41.64;102442.55;108564;1272;23625;-77
2022/03/01 09:22:14;;;;;;;33.30;24.30;;;;;;;10.09;40.80;102435.39;108508;1272;23612;-78
2022/03/01 09:24:56;;;;;;;30.40;23.70;;;;;;;10.13;40.82;102433.23;108854;1272;21999;-75
2022/03/01 09:27:39;;;;;;;29.40;21.90;;;;;;;9.97;39.53;102432.29;108461;1272;22065;-79
2022/03/01 09:30:23;;;;;;;;;;;;;;;;;;;;;
2022/03/01 09:33:23;;;;;;;32.80;25.40;;;;;;;9.96;39.99;102425.47;108747;1272;23774;-79
2022/03/01 09:36:04;;;;;;;135.60;102.60;;;;;;;9.94;39.83;102424.77;108399;1276;23696;-79
2022/03/01 09:39:07;;;;;;;178.50;112.20;;;;;;;9.96;39.41;102427.38;108367;1276;21998;-79
2022/03/01 09:41:47;;;;;;;104.20;49.30;;;;;;;9.84;38.72;102427.59;108400;1275;22082;-80
2022/03/01 09:44:22;;;;;;;61.10;32.90;;;;;;;9.85;38.60;102427.16;108557;1276;23783;-80
2022/03/01 09:46:59;;;;;;;22.20;12.40;;;;;;;9.78;38.24;102426.26;108200;1281;22014;-81
2022/03/01 09:49:36;;;;;;;60.30;33.10;;;;;;;9.80;38.09;102421.35;108293;1281;22453;-79
2022/03/01 09:52:18;;;;;;;143.40;79.00;;;;;;;9.85;37.77;102413.23;108058;1281;22007;-82
2022/03/01 09:54:56;;;;;;;28.40;20.20;;;;;;;9.91;37.84;102404.55;108189;1278;23097;-80
2022/03/01 09:57:27;;;;;;;25.30;17.20;;;;;;;9.99;37.65;102401.84;108479;1278;22019;-79
2022/03/01 10:00:03;;;;;;;24.10;14.70;;;;;;;10.09;37.65;102407.95;108214;1278;23660;-79
2022/03/01 10:03:02;;;;;;;25.40;17.00;;;;;;;10.14;37.07;102411.45;108304;1278;23062;-79
2022/03/01 10:05:44;;;;;;;22.30;17.80;;;;;;;10.19;36.90;102412.13;108438;1273;22052;-81
2022/03/01 10:08:50;;;;;;;24.50;19.30;;;;;;;10.24;36.73;102413.14;108773;1272;21995;-79
2022/03/01 10:11:36;;;;;;;29.10;19.20;;;;;;;10.27;36.40;102416.50;108462;1278;22003;-80
2022/03/01 10:14:28;;;;;;;23.10;16.40;;;;;;;10.23;36.31;102415.03;108401;1279;23092;-79
2022/03/01 10:17:16;;;;;;;21.10;16.60;;;;;;;10.37;36.58;102416.80;108445;1278;24337;-80
2022/03/01 10:20:02;;;;;;;18.90;13.30;;;;;;;10.49;36.23;102412.88;108169;1278;23726;-78
2022/03/01 10:22:34;;;;;;;21.00;16.10;;;;;;;10.60;35.99;102403.59;107980;1283;22021;-80
2022/03/01 10:25:24;;;;;;;15.60;11.60;;;;;;;10.81;35.46;102403.19;107948;1283;22090;-80
2022/03/01 10:28:02;;;;;;;17.00;12.00;;;;;;;11.01;35.16;102403.72;108212;1283;23622;-78
2022/03/01 10:30:39;;;;;;;15.90;11.30;;;;;;;11.53;34.84;102401.40;107890;1283;22098;-79
2022/03/01 10:33:23;;;;;;;14.10;8.30;;;;;;;12.09;34.56;102398.02;108270;1283;22026;-82
2022/03/01 10:36:00;;;;;;;15.50;9.50;;;;;;;12.76;33.46;102397.70;108001;1286;22071;-79
2022/03/01 10:38:35;;;;;;;13.80;10.70;;;;;;;13.19;31.83;102393.83;108000;1283;22006;-79
2022/03/01 10:41:25;;;;;;;11.50;7.90;;;;;;;13.62;31.64;102387.35;108167;1278;22028;-78
2022/03/01 10:44:12;;;;;;;12.10;8.00;;;;;;;14.41;31.30;102385.59;107785;1284;22168;-79
2022/03/01 10:47:03;;;;;;;13.80;9.70;;;;;;;15.06;29.69;102392.95;107950;1283;23167;-80
2022/03/01 10:49:38;;;;;;;14.00;10.50;;;;;;;15.44;28.87;102388.63;107949;1282;22832;-80
2022/03/01 10:52:32;;;;;;;15.90;13.60;;;;;;;15.67;28.22;102385.90;108036;1283;21998;-80
2022/03/01 10:55:37;;;;;;;11.90;10.10;;;;;;;15.99;28.18;102377.22;108032;1282;23697;-81
2022/03/01 10:58:17;;;;;;;12.20;9.00;;;;;;;16.58;27.91;102371.95;108192;1283;23975;-80
2022/03/01 11:00:52;;;;;;;16.70;10.20;;;;;;;17.32;27.36;102365.31;108134;1282;21988;-80
2022/03/01 11:03:26;;;;;;;16.20;11.80;;;;;;;17.45;25.28;102360.56;108273;1280;22000;-80
2022/03/01 11:06:09;;;;;;;;;;;;;;;;;;;;;
2022/03/01 11:08:45;;;;;;;18.90;11.10;;;;;;;16.98;25.90;102347.36;108172;1280;22005;-80
2022/03/01 11:11:21;;;;;;;15.20;11.40;;;;;;;17.25;24.87;102342.34;108200;1281;23652;-79
2022/03/01 11:14:14;;;;;;;17.10;11.80;;;;;;;16.91;23.90;102339.92;107847;1287;22013;-80
2022/03/01 11:17:18;;;;;;;20.30;12.80;;;;;;;16.78;24.48;102336.06;107894;1287;22023;-79
2022/03/01 11:20:14;;;;;;;16.70;12.40;;;;;;;17.13;25.34;102323.52;107948;1286;23829;-80
2022/03/01 11:23:21;;;;;;;14.30;9.90;;;;;;;16.75;24.49;102318.91;107944;1286;22124;-80
2022/03/01 11:26:12;;;;;;;12.30;9.80;;;;;;;15.77;23.89;102321.81;107880;1281;22298;-80
2022/03/01 11:28:57;;;;;;;13.40;10.80;;;;;;;14.15;23.91;102314.52;108252;1281;23137;-82
2022/03/01 11:31:32;;;;;;;16.90;11.10;;;;;;;12.75;25.02;102308.27;108370;1273;21999;-79
2022/03/01 11:34:23;;;;;;;15.70;12.50;;;;;;;11.74;25.85;102305.78;108805;1272;23702;-81
2022/03/01 11:37:01;;;;;;;12.90;10.10;;;;;;;10.62;26.49;102299.44;108516;1272;22758;-78